createdAt,value
2019-03-24T00:01:06.220Z,1023.1
2019-03-24T00:02:20.442Z,1023.2
2019-03-24T00:03:34.695Z,1023.2
2019-03-24T00:04:48.912Z,1023.2
2019-03-24T00:06:03.193Z,1023.3
2019-03-24T00:07:19.187Z,1023.2
2019-03-24T00:08:31.565Z,1023.3
2019-03-24T00:09:45.806Z,1023.2
2019-03-24T00:11:00.121Z,1023.2
2019-03-24T00:12:14.262Z,1023.2
2019-03-24T00:13:28.556Z,1023.1
2019-03-24T00:14:42.962Z,1023.1
2019-03-24T00:15:57.054Z,1023.1
2019-03-24T00:17:11.196Z,1023.1
2019-03-24T00:18:25.504Z,1023.1
2019-03-24T00:19:39.662Z,1023.1
2019-03-24T00:20:53.959Z,1023.1
2019-03-24T00:22:08.222Z,1023.1
2019-03-24T00:23:22.472Z,1023.1
2019-03-24T00:24:36.626Z,1023.1
2019-03-24T00:25:50.897Z,1023.1
2019-03-24T00:27:05.133Z,1023.1
2019-03-24T00:28:19.307Z,1023.2
2019-03-24T00:29:33.561Z,1023.1
2019-03-24T00:30:47.815Z,1023.1
2019-03-24T00:32:02.015Z,1023.2
2019-03-24T00:33:16.356Z,1023.2
2019-03-24T00:34:30.556Z,1023.1
2019-03-24T00:35:44.852Z,1023.2
2019-03-24T00:36:58.961Z,1023.1
2019-03-24T00:38:13.225Z,1023.2
2019-03-24T00:39:31.551Z,1023.2
2019-03-24T00:40:41.715Z,1023.2
2019-03-24T00:41:55.889Z,1023.2
2019-03-24T00:43:10.155Z,1023.1
2019-03-24T00:44:24.338Z,1023.1
2019-03-24T00:45:38.721Z,1023.1
2019-03-24T00:46:52.812Z,1023.2
2019-03-24T00:48:07.117Z,1023.3
2019-03-24T00:49:21.262Z,1023.2
2019-03-24T00:50:35.506Z,1023.2
2019-03-24T00:51:49.759Z,1023.2
2019-03-24T00:53:04.056Z,1023.2
2019-03-24T00:54:18.184Z,1023.1
2019-03-24T00:55:32.453Z,1023.1
2019-03-24T00:56:46.745Z,1023.1
2019-03-24T00:58:00.905Z,1023.1
2019-03-24T00:59:15.148Z,1023.1
2019-03-24T01:00:29.387Z,1023.1
2019-03-24T01:01:43.586Z,1023.1
2019-03-24T01:02:57.818Z,1022.9
2019-03-24T01:04:12.062Z,1022.9
2019-03-24T01:05:26.302Z,1023
2019-03-24T01:06:40.570Z,1022.9
2019-03-24T01:07:54.776Z,1022.9
2019-03-24T01:09:09.002Z,1023
2019-03-24T01:10:23.260Z,1022.9
2019-03-24T01:11:37.487Z,1023
2019-03-24T01:12:51.737Z,1023
2019-03-24T01:14:05.923Z,1022.9
2019-03-24T01:15:20.170Z,1022.9
2019-03-24T01:16:34.366Z,1023
2019-03-24T01:17:48.626Z,1023
2019-03-24T01:19:02.843Z,1022.9
2019-03-24T01:20:17.168Z,1022.9
2019-03-24T01:21:31.383Z,1022.9
2019-03-24T01:22:45.503Z,1022.9
2019-03-24T01:23:59.735Z,1022.9
2019-03-24T01:25:13.953Z,1022.9
2019-03-24T01:26:28.179Z,1022.9
2019-03-24T01:27:42.577Z,1022.9
2019-03-24T01:28:56.791Z,1022.9
2019-03-24T01:30:10.841Z,1022.9
2019-03-24T01:31:25.138Z,1022.9
2019-03-24T01:32:39.289Z,1022.9
2019-03-24T01:33:53.838Z,1022.9
2019-03-24T01:35:07.741Z,1022.9
2019-03-24T01:36:22.133Z,1023
2019-03-24T01:37:36.180Z,1023
2019-03-24T01:38:50.482Z,1023
2019-03-24T01:40:04.717Z,1022.9
2019-03-24T01:41:18.893Z,1022.9
2019-03-24T01:42:33.094Z,1022.8
2019-03-24T01:43:47.417Z,1022.9
2019-03-24T01:45:01.634Z,1022.8
2019-03-24T01:46:15.829Z,1022.8
2019-03-24T01:47:29.975Z,1022.9
2019-03-24T01:48:44.279Z,1022.9
2019-03-24T01:49:58.827Z,1022.8
2019-03-24T01:51:12.644Z,1022.8
2019-03-24T01:52:26.848Z,1022.7
2019-03-24T01:53:41.143Z,1022.8
2019-03-24T01:54:58.569Z,1022.8
2019-03-24T01:56:09.572Z,1022.8
2019-03-24T01:57:23.727Z,1022.8
2019-03-24T01:58:38.013Z,1022.8
2019-03-24T01:59:52.195Z,1022.7
2019-03-24T02:01:06.402Z,1022.8
2019-03-24T02:02:20.630Z,1022.8
2019-03-24T02:03:34.847Z,1022.7
2019-03-24T02:04:49.127Z,1022.8
2019-03-24T02:06:03.294Z,1022.7
2019-03-24T02:07:17.579Z,1022.7
2019-03-24T02:08:31.782Z,1022.7
2019-03-24T02:09:46.028Z,1022.6
2019-03-24T02:11:00.203Z,1022.7
2019-03-24T02:12:14.425Z,1022.6
2019-03-24T02:13:28.646Z,1022.6
2019-03-24T02:14:42.876Z,1022.6
2019-03-24T02:15:57.216Z,1022.6
2019-03-24T02:17:11.313Z,1022.6
2019-03-24T02:18:25.654Z,1022.6
2019-03-24T02:19:39.763Z,1022.5
2019-03-24T02:20:53.985Z,1022.6
2019-03-24T02:22:08.226Z,1022.6
2019-03-24T02:23:22.507Z,1022.6
2019-03-24T02:24:36.708Z,1022.6
2019-03-24T02:25:50.905Z,1022.6
2019-03-24T02:27:08.010Z,1022.6
2019-03-24T02:28:19.396Z,1022.5
2019-03-24T02:29:33.678Z,1022.5
2019-03-24T02:30:47.830Z,1022.5
2019-03-24T02:32:02.046Z,1022.5
2019-03-24T02:33:16.324Z,1022.5
2019-03-24T02:34:30.486Z,1022.5
2019-03-24T02:35:44.821Z,1022.5
2019-03-24T02:36:59.050Z,1022.5
2019-03-24T02:38:13.188Z,1022.5
2019-03-24T02:39:27.428Z,1022.5
2019-03-24T02:40:41.723Z,1022.6
2019-03-24T02:41:55.883Z,1022.5
2019-03-24T02:43:10.197Z,1022.5
2019-03-24T02:44:24.352Z,1022.5
2019-03-24T02:45:38.587Z,1022.5
2019-03-24T02:46:52.859Z,1022.5
2019-03-24T02:48:06.997Z,1022.5
2019-03-24T02:49:21.304Z,1022.4
2019-03-24T02:50:39.178Z,1022.5
2019-03-24T02:51:49.683Z,1022.4
2019-03-24T02:53:03.978Z,1022.4
2019-03-24T02:54:18.161Z,1022.4
2019-03-24T02:55:32.532Z,1022.4
2019-03-24T02:56:46.686Z,1022.4
2019-03-24T02:58:00.834Z,1022.4
2019-03-24T02:59:15.095Z,1022.4
2019-03-24T03:00:29.317Z,1022.3
2019-03-24T03:01:43.564Z,1022.4
2019-03-24T03:02:57.808Z,1022.3
2019-03-24T03:04:12.084Z,1022.3
2019-03-24T03:05:26.323Z,1022.3
2019-03-24T03:06:40.536Z,1022.3
2019-03-24T03:07:54.675Z,1022.3
2019-03-24T03:09:08.919Z,1022.3
2019-03-24T03:10:23.310Z,1022.3
2019-03-24T03:11:37.427Z,1022.3
2019-03-24T03:12:51.575Z,1022.3
2019-03-24T03:14:05.909Z,1022.3
2019-03-24T03:15:20.036Z,1022.3
2019-03-24T03:16:34.270Z,1022.3
2019-03-24T03:17:48.621Z,1022.3
2019-03-24T03:19:02.823Z,1022.3
2019-03-24T03:20:17.077Z,1022.2
2019-03-24T03:21:31.271Z,1022.2
2019-03-24T03:22:45.421Z,1022.2
2019-03-24T03:23:59.664Z,1022.2
2019-03-24T03:25:13.934Z,1022.3
2019-03-24T03:26:28.133Z,1022.2
2019-03-24T03:27:42.350Z,1022.2
2019-03-24T03:28:56.625Z,1022.2
2019-03-24T03:30:10.806Z,1022.2
2019-03-24T03:31:25.048Z,1022.3
2019-03-24T03:32:39.388Z,1022.3
2019-03-24T03:33:53.514Z,1022.2
2019-03-24T03:35:07.765Z,1022.2
2019-03-24T03:36:21.974Z,1022.2
2019-03-24T03:37:36.221Z,1022.2
2019-03-24T03:38:50.489Z,1022.2
2019-03-24T03:40:04.648Z,1022.2
2019-03-24T03:41:19.044Z,1022.1
2019-03-24T03:42:33.400Z,1022.2
2019-03-24T03:43:47.377Z,1022.2
2019-03-24T03:45:01.560Z,1022.1
2019-03-24T03:46:15.825Z,1022.1
2019-03-24T03:47:29.979Z,1022.1
2019-03-24T03:48:44.196Z,1022.1
2019-03-24T03:49:58.428Z,1022.1
2019-03-24T03:51:12.634Z,1022.1
2019-03-24T03:52:26.953Z,1022
2019-03-24T03:53:41.109Z,1022.1
2019-03-24T03:54:55.329Z,1022.1
2019-03-24T03:56:13.139Z,1022.1
2019-03-24T03:57:23.805Z,1022.1
2019-03-24T03:58:38.004Z,1022.1
2019-03-24T03:59:52.284Z,1022.1
2019-03-24T04:01:06.464Z,1022
2019-03-24T04:02:20.652Z,1022
2019-03-24T04:03:34.884Z,1022
2019-03-24T04:04:49.125Z,1021.9
2019-03-24T04:06:03.337Z,1022
2019-03-24T04:07:17.671Z,1021.9
2019-03-24T04:08:31.868Z,1022
2019-03-24T04:09:46.037Z,1022
2019-03-24T04:11:00.483Z,1022
2019-03-24T04:14:42.914Z,1022
2019-03-24T04:26:32.479Z,1021.9
2019-03-24T04:28:24.651Z,1021.8
2019-03-24T04:32:02.235Z,1021.9
2019-03-24T04:33:16.528Z,1022
2019-03-24T04:34:30.705Z,1022
2019-03-24T04:35:44.833Z,1021.9
2019-03-24T04:36:59.038Z,1021.9
2019-03-24T04:38:13.270Z,1022
2019-03-24T04:39:27.524Z,1021.9
2019-03-24T04:40:41.747Z,1021.9
2019-03-24T04:41:55.947Z,1021.9
2019-03-24T04:43:10.261Z,1021.9
2019-03-24T04:44:24.417Z,1021.9
2019-03-24T04:45:38.698Z,1021.9
2019-03-24T04:46:52.905Z,1022
2019-03-24T04:48:07.132Z,1022
2019-03-24T04:49:21.353Z,1021.9
2019-03-24T04:50:35.584Z,1022
2019-03-24T04:51:49.869Z,1022
2019-03-24T04:53:04.044Z,1021.9
2019-03-24T04:54:18.270Z,1021.9
2019-03-24T04:55:32.722Z,1022
2019-03-24T04:56:46.745Z,1022
2019-03-24T04:58:01.097Z,1021.9
2019-03-24T04:59:15.286Z,1021.9
2019-03-24T05:00:29.500Z,1021.9
2019-03-24T05:01:43.720Z,1021.9
2019-03-24T05:02:57.899Z,1021.9
2019-03-24T05:04:13.780Z,1021.9
2019-03-24T05:05:26.387Z,1021.9
2019-03-24T05:06:40.654Z,1021.9
2019-03-24T05:07:54.827Z,1021.9
2019-03-24T05:09:09.029Z,1021.9
2019-03-24T05:10:25.853Z,1021.9
2019-03-24T05:11:37.577Z,1022
2019-03-24T05:12:51.746Z,1021.9
2019-03-24T05:14:06.058Z,1021.9
2019-03-24T05:15:20.214Z,1021.9
2019-03-24T05:16:34.488Z,1021.9
2019-03-24T05:17:48.766Z,1022
2019-03-24T05:19:05.413Z,1022
2019-03-24T05:20:17.499Z,1022
2019-03-24T05:21:31.395Z,1022
2019-03-24T05:22:45.596Z,1022
2019-03-24T05:23:59.826Z,1022
2019-03-24T05:25:14.130Z,1022
2019-03-24T05:26:28.318Z,1022
2019-03-24T05:27:42.535Z,1022
2019-03-24T05:28:56.793Z,1022
2019-03-24T05:30:10.974Z,1021.9
2019-03-24T05:31:25.231Z,1021.9
2019-03-24T05:32:39.509Z,1021.9
2019-03-24T05:33:53.686Z,1021.9
2019-03-24T05:35:07.904Z,1021.9
2019-03-24T05:36:22.136Z,1021.8
2019-03-24T05:37:36.368Z,1021.8
2019-03-24T05:38:50.589Z,1021.9
2019-03-24T05:40:04.832Z,1021.8
2019-03-24T05:41:19.128Z,1021.9
2019-03-24T05:42:33.309Z,1021.8
2019-03-24T05:43:47.550Z,1021.9
2019-03-24T05:45:01.817Z,1021.9
2019-03-24T05:46:15.979Z,1021.8
2019-03-24T05:47:30.205Z,1021.8
2019-03-24T05:48:44.593Z,1021.8
2019-03-24T05:49:58.725Z,1021.8
2019-03-24T05:51:12.953Z,1021.8
2019-03-24T05:52:27.202Z,1021.7
2019-03-24T05:53:41.359Z,1021.7
2019-03-24T05:54:55.538Z,1021.8
2019-03-24T05:56:09.766Z,1021.7
2019-03-24T05:57:24.082Z,1021.7
2019-03-24T05:58:38.300Z,1021.6
2019-03-24T05:59:52.457Z,1021.6
2019-03-24T06:01:06.770Z,1021.6
2019-03-24T06:02:20.899Z,1021.6
2019-03-24T06:03:35.123Z,1021.6
2019-03-24T06:04:49.408Z,1021.6
2019-03-24T06:06:03.559Z,1021.5
2019-03-24T06:07:17.784Z,1021.5
2019-03-24T06:08:31.998Z,1021.5
2019-03-24T06:09:46.318Z,1021.4
2019-03-24T06:11:00.440Z,1021.3
2019-03-24T06:12:14.647Z,1021.4
2019-03-24T06:13:28.963Z,1021.4
2019-03-24T06:14:43.082Z,1021.3
2019-03-24T06:15:57.287Z,1021.3
2019-03-24T06:17:11.508Z,1021.3
2019-03-24T06:18:25.860Z,1021.3
2019-03-24T06:19:39.965Z,1021.3
2019-03-24T06:20:54.159Z,1021.3
2019-03-24T06:22:08.431Z,1021.3
2019-03-24T06:23:22.705Z,1021.3
2019-03-24T06:24:36.780Z,1021.2
2019-03-24T06:25:51.093Z,1021.2
2019-03-24T06:27:05.222Z,1021.2
2019-03-24T06:28:19.423Z,1021.2
2019-03-24T06:29:33.648Z,1021.2
2019-03-24T06:30:47.842Z,1021.2
2019-03-24T06:32:02.095Z,1021.2
2019-03-24T06:33:16.451Z,1021.2
2019-03-24T06:34:30.591Z,1021.2
2019-03-24T06:35:44.786Z,1021.2
2019-03-24T06:36:58.917Z,1021.2
2019-03-24T06:38:13.184Z,1021.1
2019-03-24T06:39:27.511Z,1021.1
2019-03-24T06:40:41.557Z,1021.1
2019-03-24T06:41:55.817Z,1021.1
2019-03-24T06:43:09.981Z,1021
2019-03-24T06:44:27.040Z,1021
2019-03-24T06:45:38.369Z,1021
2019-03-24T06:46:52.582Z,1021
2019-03-24T06:48:07.812Z,1021
2019-03-24T06:49:20.988Z,1020.9
2019-03-24T06:50:35.168Z,1021.1
2019-03-24T06:51:49.372Z,1021
2019-03-24T06:53:03.582Z,1021
2019-03-24T06:54:17.800Z,1021
2019-03-24T06:55:31.968Z,1021
2019-03-24T06:56:46.238Z,1021
2019-03-24T06:58:00.369Z,1020.9
2019-03-24T06:59:14.571Z,1020.9
2019-03-24T07:00:28.812Z,1021
2019-03-24T07:01:42.980Z,1020.9
2019-03-24T07:02:59.520Z,1021
2019-03-24T07:04:11.375Z,1020.9
2019-03-24T07:05:25.651Z,1021
2019-03-24T07:06:39.972Z,1021
2019-03-24T07:07:54.061Z,1021
2019-03-24T07:09:08.204Z,1021
2019-03-24T07:10:22.399Z,1021
2019-03-24T07:11:36.571Z,1021
2019-03-24T07:12:50.799Z,1021
2019-03-24T07:14:04.976Z,1021
2019-03-24T07:15:19.230Z,1021
2019-03-24T07:16:33.362Z,1021
2019-03-24T07:17:47.559Z,1021
2019-03-24T07:19:01.847Z,1020.9
2019-03-24T07:20:15.935Z,1021
2019-03-24T07:21:30.138Z,1021
2019-03-24T07:22:44.331Z,1021
2019-03-24T07:23:58.522Z,1021
2019-03-24T07:25:12.793Z,1021
2019-03-24T07:26:27.072Z,1021
2019-03-24T07:27:41.154Z,1021.1
2019-03-24T07:28:55.275Z,1021
2019-03-24T07:30:09.602Z,1021
2019-03-24T07:31:23.664Z,1020.9
2019-03-24T07:32:37.934Z,1020.9
2019-03-24T07:33:52.142Z,1021
2019-03-24T07:35:06.199Z,1021
2019-03-24T07:36:20.383Z,1021
2019-03-24T07:37:34.647Z,1020.9
2019-03-24T07:38:49.194Z,1021
2019-03-24T07:40:02.953Z,1021
2019-03-24T07:41:19.305Z,1021
2019-03-24T07:42:31.738Z,1021
2019-03-24T07:43:45.613Z,1021.1
2019-03-24T07:44:59.660Z,1021.1
2019-03-24T07:46:13.860Z,1021
2019-03-24T07:47:28.031Z,1021.1
2019-03-24T07:48:42.214Z,1021.1
2019-03-24T07:49:56.381Z,1021.1
2019-03-24T07:51:10.643Z,1021.1
2019-03-24T07:52:24.803Z,1021.1
2019-03-24T07:53:38.945Z,1021.1
2019-03-24T07:54:53.123Z,1021.1
2019-03-24T07:56:07.333Z,1021.1
2019-03-24T07:57:21.663Z,1021.1
2019-03-24T07:58:35.749Z,1021.1
2019-03-24T07:59:49.885Z,1021.1
2019-03-24T08:01:04.300Z,1021.2
2019-03-24T08:02:18.647Z,1021.1
2019-03-24T08:03:32.481Z,1021.1
2019-03-24T08:04:46.713Z,1021.1
2019-03-24T08:06:00.908Z,1021
2019-03-24T08:07:15.013Z,1021.1
2019-03-24T08:08:29.203Z,1021.1
2019-03-24T08:09:43.475Z,1021
2019-03-24T08:10:57.608Z,1021.1
2019-03-24T08:12:11.787Z,1021.1
2019-03-24T08:13:25.972Z,1021
2019-03-24T08:14:40.279Z,1021.1
2019-03-24T08:15:54.354Z,1021
2019-03-24T08:17:08.633Z,1020.9
2019-03-24T08:18:22.730Z,1021
2019-03-24T08:19:36.888Z,1020.9
2019-03-24T08:20:51.173Z,1020.8
2019-03-24T08:22:05.244Z,1020.9
2019-03-24T08:23:19.453Z,1020.8
2019-03-24T08:24:33.551Z,1020.7
2019-03-24T08:25:47.736Z,1020.6
2019-03-24T08:27:01.923Z,1020.6
2019-03-24T08:28:15.999Z,1020.6
2019-03-24T08:30:44.408Z,1020.7
2019-03-24T08:31:58.498Z,1020.6
2019-03-24T08:33:12.666Z,1020.6
2019-03-24T08:34:26.950Z,1020.6
2019-03-24T08:35:44.037Z,1020.6
2019-03-24T08:36:55.233Z,1020.6
2019-03-24T08:38:09.275Z,1020.6
2019-03-24T08:39:23.431Z,1020.6
2019-03-24T08:40:37.569Z,1020.6
2019-03-24T08:41:51.771Z,1020.5
2019-03-24T08:43:05.857Z,1020.5
2019-03-24T08:44:20.080Z,1020.5
2019-03-24T08:45:34.154Z,1020.5
2019-03-24T08:46:48.293Z,1020.5
2019-03-24T08:48:02.691Z,1020.5
2019-03-24T08:49:16.609Z,1020.4
2019-03-24T08:50:30.724Z,1020.5
2019-03-24T08:51:44.986Z,1020.5
2019-03-24T08:52:59.021Z,1020.5
2019-03-24T08:54:13.208Z,1020.5
2019-03-24T08:55:27.386Z,1020.4
2019-03-24T08:56:41.452Z,1020.4
2019-03-24T08:57:55.678Z,1020.5
2019-03-24T08:59:09.741Z,1020.4
2019-03-24T09:00:23.939Z,1020.5
2019-03-24T09:01:37.998Z,1020.5
2019-03-24T09:02:52.234Z,1020.5
2019-03-24T09:04:06.276Z,1020.5
2019-03-24T09:05:20.473Z,1020.5
2019-03-24T09:06:34.707Z,1020.4
2019-03-24T09:07:48.714Z,1020.4
2019-03-24T09:09:02.933Z,1020.4
2019-03-24T09:10:16.982Z,1020.4
2019-03-24T09:11:31.195Z,1020.3
2019-03-24T09:12:45.294Z,1020.4
2019-03-24T09:13:59.404Z,1020.3
2019-03-24T09:15:13.536Z,1020.3
2019-03-24T09:16:27.627Z,1020.4
2019-03-24T09:17:41.749Z,1020.3
2019-03-24T09:18:55.919Z,1020.3
2019-03-24T09:20:10.061Z,1020.3
2019-03-24T09:21:24.111Z,1020.3
2019-03-24T09:22:38.288Z,1020.3
2019-03-24T09:23:52.394Z,1020.4
2019-03-24T09:25:06.434Z,1020.3
2019-03-24T09:26:20.612Z,1020.3
2019-03-24T09:27:34.669Z,1020.5
2019-03-24T09:28:48.868Z,1020.4
2019-03-24T09:30:02.904Z,1020.4
2019-03-24T09:31:17.124Z,1020.4
2019-03-24T09:32:31.235Z,1020.4
2019-03-24T09:33:45.276Z,1020.3
2019-03-24T09:34:59.424Z,1020.3
2019-03-24T09:36:13.580Z,1020.3
2019-03-24T09:37:27.648Z,1020.3
2019-03-24T09:38:41.810Z,1020.4
2019-03-24T09:39:56.046Z,1020.3
2019-03-24T09:41:10.125Z,1020.3
2019-03-24T09:42:24.127Z,1020.3
2019-03-24T09:43:38.247Z,1020.3
2019-03-24T09:44:52.374Z,1020.3
2019-03-24T09:46:06.453Z,1020.3
2019-03-24T09:47:20.587Z,1020.2
2019-03-24T09:48:34.680Z,1020.2
2019-03-24T09:49:48.839Z,1020.3
2019-03-24T09:51:02.947Z,1020.2
2019-03-24T09:52:16.979Z,1020.3
2019-03-24T09:53:31.171Z,1020.3
2019-03-24T09:54:45.197Z,1020.3
2019-03-24T09:55:59.319Z,1020.3
2019-03-24T09:57:13.424Z,1020.3
2019-03-24T09:58:27.529Z,1020.2
2019-03-24T09:59:41.978Z,1020.3
2019-03-24T10:00:55.771Z,1020.3
2019-03-24T10:02:09.945Z,1020.4
2019-03-24T10:03:24.003Z,1020.4
2019-03-24T10:04:38.317Z,1020.3
2019-03-24T10:05:52.246Z,1020.3
2019-03-24T10:07:06.332Z,1020.3
2019-03-24T10:08:20.456Z,1020.3
2019-03-24T10:09:38.265Z,1020.4
2019-03-24T10:10:48.655Z,1020.3
2019-03-24T10:12:02.907Z,1020.3
2019-03-24T10:13:16.846Z,1020.2
2019-03-24T10:14:30.942Z,1020.2
2019-03-24T10:15:45.035Z,1020.2
2019-03-24T10:16:59.131Z,1020.2
2019-03-24T10:18:13.307Z,1020.1
2019-03-24T10:19:27.392Z,1019.9
2019-03-24T10:20:41.427Z,1020
2019-03-24T10:21:55.516Z,1019.9
2019-03-24T10:23:09.614Z,1019.8
2019-03-24T10:24:23.738Z,1019.8
2019-03-24T10:25:37.855Z,1019.8
2019-03-24T10:26:52.025Z,1019.8
2019-03-24T10:28:06.130Z,1019.8
2019-03-24T10:29:20.129Z,1019.8
2019-03-24T10:30:34.399Z,1019.8
2019-03-24T10:31:48.314Z,1019.8
2019-03-24T10:33:02.629Z,1019.8
2019-03-24T10:34:16.578Z,1019.8
2019-03-24T10:35:30.574Z,1019.8
2019-03-24T10:36:44.794Z,1019.8
2019-03-24T10:37:58.833Z,1019.8
2019-03-24T10:39:12.852Z,1019.9
2019-03-24T10:40:26.987Z,1019.7
2019-03-24T10:41:40.999Z,1019.8
2019-03-24T10:42:55.155Z,1019.8
2019-03-24T10:44:09.177Z,1019.7
2019-03-24T10:45:23.262Z,1019.7
2019-03-24T10:46:37.315Z,1019.5
2019-03-24T10:47:51.394Z,1019.5
2019-03-24T10:49:05.521Z,1019.5
2019-03-24T10:50:19.599Z,1019.4
2019-03-24T10:51:33.666Z,1019.5
2019-03-24T10:52:47.769Z,1019.5
2019-03-24T10:54:01.870Z,1019.5
2019-03-24T10:55:16.062Z,1019.5
2019-03-24T10:56:30.257Z,1019.5
2019-03-24T10:57:44.298Z,1019.5
2019-03-24T10:58:58.321Z,1019.5
2019-03-24T11:00:12.553Z,1019.5
2019-03-24T11:01:26.637Z,1019.5
2019-03-24T11:02:40.795Z,1019.5
2019-03-24T11:03:54.844Z,1019.5
2019-03-24T11:05:09.127Z,1019.5
2019-03-24T11:06:23.086Z,1019.4
2019-03-24T11:07:37.289Z,1019.5
2019-03-24T11:08:51.355Z,1019.4
2019-03-24T11:10:05.498Z,1019.4
2019-03-24T11:11:19.619Z,1019.4
2019-03-24T11:12:33.784Z,1019.4
2019-03-24T11:13:47.897Z,1019.3
2019-03-24T11:15:02.160Z,1019.5
2019-03-24T11:16:16.269Z,1019.4
2019-03-24T11:17:30.412Z,1019.5
2019-03-24T11:18:44.507Z,1019.4
2019-03-24T11:19:58.637Z,1019.5
2019-03-24T11:21:12.840Z,1019.4
2019-03-24T11:22:26.922Z,1019.6
2019-03-24T11:23:43.658Z,1019.6
2019-03-24T11:24:55.212Z,1019.5
2019-03-24T11:26:09.418Z,1019.6
2019-03-24T11:27:23.640Z,1019.5
2019-03-24T11:28:37.635Z,1019.5
2019-03-24T11:29:51.885Z,1019.5
2019-03-24T11:31:05.917Z,1019.5
2019-03-24T11:32:20.076Z,1019.5
2019-03-24T11:33:34.210Z,1019.5
2019-03-24T11:34:48.348Z,1019.5
2019-03-24T11:36:02.513Z,1019.4
2019-03-24T11:37:16.619Z,1019.4
2019-03-24T11:38:30.751Z,1019.4
2019-03-24T11:39:44.881Z,1019.4
2019-03-24T11:40:59.133Z,1019.5
2019-03-24T11:42:13.147Z,1019.4
2019-03-24T11:43:27.252Z,1019.4
2019-03-24T11:44:41.605Z,1019.3
2019-03-24T11:45:55.513Z,1019.3
2019-03-24T11:47:09.641Z,1019.4
2019-03-24T11:48:23.764Z,1019.4
2019-03-24T11:49:37.897Z,1019.3
2019-03-24T11:50:52.040Z,1019.3
2019-03-24T11:52:06.129Z,1019.5
2019-03-24T11:53:20.271Z,1019.4
2019-03-24T11:54:34.353Z,1019.4
2019-03-24T11:55:48.611Z,1019.3
2019-03-24T11:57:02.594Z,1019.2
2019-03-24T11:58:16.697Z,1019.2
2019-03-24T11:59:30.797Z,1019.2
2019-03-24T12:00:44.899Z,1019.2
2019-03-24T12:01:59.016Z,1019.2
2019-03-24T12:03:13.256Z,1019.2
2019-03-24T12:04:27.321Z,1019.2
2019-03-24T12:05:41.369Z,1019.2
2019-03-24T12:06:55.493Z,1019.1
2019-03-24T12:08:09.612Z,1019.1
2019-03-24T12:09:23.731Z,1019
2019-03-24T12:10:37.935Z,1019
2019-03-24T12:11:52.076Z,1019
2019-03-24T12:13:06.219Z,1019.1
2019-03-24T12:14:20.315Z,1019
2019-03-24T12:15:34.443Z,1019.1
2019-03-24T12:16:48.659Z,1019
2019-03-24T12:18:02.687Z,1018.9
2019-03-24T12:19:16.941Z,1019
2019-03-24T12:20:30.947Z,1019
2019-03-24T12:21:45.000Z,1019
2019-03-24T12:22:59.138Z,1019
2019-03-24T12:24:13.311Z,1019
2019-03-24T12:25:27.468Z,1019
2019-03-24T12:26:42.759Z,1019
2019-03-24T12:27:55.757Z,1019
2019-03-24T12:29:09.830Z,1019
2019-03-24T12:30:24.108Z,1019
2019-03-24T12:31:38.181Z,1019
2019-03-24T12:32:52.224Z,1019
2019-03-24T12:34:06.362Z,1019
2019-03-24T12:35:20.501Z,1019
2019-03-24T12:36:34.925Z,1019
2019-03-24T12:37:48.798Z,1019
2019-03-24T12:39:02.903Z,1019
2019-03-24T12:40:17.110Z,1019
2019-03-24T12:41:31.254Z,1019
2019-03-24T12:42:45.312Z,1019
2019-03-24T12:43:59.511Z,1019
2019-03-24T12:45:13.613Z,1018.9
2019-03-24T12:46:27.727Z,1018.9
2019-03-24T12:47:41.930Z,1018.9
2019-03-24T12:48:56.074Z,1018.8
2019-03-24T12:50:10.161Z,1018.8
2019-03-24T12:51:24.401Z,1018.8
2019-03-24T12:52:38.499Z,1018.8
2019-03-24T12:53:52.672Z,1018.9
2019-03-24T12:55:06.901Z,1018.9
2019-03-24T12:56:20.807Z,1019
2019-03-24T12:57:34.976Z,1018.9
2019-03-24T12:58:49.063Z,1018.8
2019-03-24T13:01:17.349Z,1018.8
2019-03-24T13:02:31.437Z,1018.8
2019-03-24T13:03:45.562Z,1018.8
2019-03-24T13:04:59.696Z,1018.9
2019-03-24T13:06:13.813Z,1018.9
2019-03-24T13:07:27.994Z,1018.8
2019-03-24T13:08:44.216Z,1018.9
2019-03-24T13:09:56.170Z,1018.8
2019-03-24T13:11:10.380Z,1018.8
2019-03-24T13:12:24.411Z,1018.7
2019-03-24T13:13:38.516Z,1018.8
2019-03-24T13:14:52.709Z,1018.7
2019-03-24T13:16:06.771Z,1018.7
2019-03-24T13:17:20.863Z,1018.6
2019-03-24T13:18:35.012Z,1018.6
2019-03-24T13:19:49.126Z,1018.6
2019-03-24T13:21:03.397Z,1018.6
2019-03-24T13:22:17.381Z,1018.5
2019-03-24T13:23:31.462Z,1018.5
2019-03-24T13:24:45.638Z,1018.5
2019-03-24T13:25:59.801Z,1018.4
2019-03-24T13:27:13.830Z,1018.5
2019-03-24T13:28:27.918Z,1018.5
2019-03-24T13:29:42.345Z,1018.4
2019-03-24T13:30:56.203Z,1018.5
2019-03-24T13:32:10.296Z,1018.4
2019-03-24T13:33:24.527Z,1018.4
2019-03-24T13:34:38.614Z,1018.3
2019-03-24T13:35:52.779Z,1018.3
2019-03-24T13:37:06.918Z,1018.2
2019-03-24T13:38:20.991Z,1018.3
2019-03-24T13:39:35.030Z,1018.3
2019-03-24T13:40:49.161Z,1018.3
2019-03-24T13:42:03.295Z,1018.3
2019-03-24T13:43:17.431Z,1018.2
2019-03-24T13:44:31.594Z,1018.2
2019-03-24T13:45:45.644Z,1018.2
2019-03-24T13:46:59.983Z,1018.1
2019-03-24T13:48:13.984Z,1018.1
2019-03-24T13:49:28.127Z,1018
2019-03-24T13:50:42.232Z,1018
2019-03-24T13:51:56.281Z,1018
2019-03-24T13:53:10.480Z,1018
2019-03-24T13:54:24.635Z,1018
2019-03-24T13:55:38.686Z,1018.1
2019-03-24T13:56:52.852Z,1018
2019-03-24T13:58:07.073Z,1018
2019-03-24T13:59:21.156Z,1017.9
2019-03-24T14:00:36.515Z,1018
2019-03-24T14:01:49.482Z,1017.9
2019-03-24T14:03:03.545Z,1018
2019-03-24T14:04:17.693Z,1017.9
2019-03-24T14:05:31.900Z,1017.9
2019-03-24T14:06:46.077Z,1017.9
2019-03-24T14:08:00.146Z,1017.9
2019-03-24T14:09:14.288Z,1018
2019-03-24T14:10:28.400Z,1017.9
2019-03-24T14:11:42.584Z,1018
2019-03-24T14:12:56.695Z,1018
2019-03-24T14:14:10.856Z,1017.9
2019-03-24T14:15:25.024Z,1018
2019-03-24T14:16:39.171Z,1018.1
2019-03-24T14:17:53.336Z,1018
2019-03-24T14:19:07.437Z,1017.9
2019-03-24T14:20:21.598Z,1017.9
2019-03-24T14:21:35.742Z,1017.9
2019-03-24T14:22:49.879Z,1017.9
2019-03-24T14:24:03.955Z,1017.8
2019-03-24T14:25:18.107Z,1017.9
2019-03-24T14:26:32.293Z,1017.9
2019-03-24T14:27:46.379Z,1017.7
2019-03-24T14:29:00.601Z,1017.8
2019-03-24T14:30:14.732Z,1017.7
2019-03-24T14:31:28.857Z,1017.7
2019-03-24T14:32:44.068Z,1017.6
2019-03-24T14:33:57.132Z,1017.6
2019-03-24T14:35:11.222Z,1017.6
2019-03-24T14:36:25.382Z,1017.6
2019-03-24T14:37:39.527Z,1017.6
2019-03-24T14:38:53.654Z,1017.6
2019-03-24T14:40:07.800Z,1017.5
2019-03-24T14:42:36.164Z,1017.5
2019-03-24T14:43:50.208Z,1017.5
2019-03-24T14:45:04.336Z,1017.5
2019-03-24T14:46:18.526Z,1017.5
2019-03-24T14:47:32.623Z,1017.5
2019-03-24T14:48:46.761Z,1017.4
2019-03-24T14:50:00.953Z,1017.5
2019-03-24T14:51:15.109Z,1017.5
2019-03-24T14:52:29.224Z,1017.5
2019-03-24T14:53:43.315Z,1017.5
2019-03-24T14:54:58.840Z,1017.5
2019-03-24T14:56:11.647Z,1017.5
2019-03-24T14:57:25.707Z,1017.5
2019-03-24T14:58:39.842Z,1017.4
2019-03-24T14:59:53.967Z,1017.4
2019-03-24T15:01:08.139Z,1017.4
2019-03-24T15:02:22.245Z,1017.4
2019-03-24T15:03:36.380Z,1017.4
2019-03-24T15:04:50.525Z,1017.3
2019-03-24T15:06:04.836Z,1017.3
2019-03-24T15:07:18.878Z,1017.4
2019-03-24T15:08:32.966Z,1017.3
2019-03-24T15:09:47.198Z,1017.3
2019-03-24T15:11:01.306Z,1017.3
2019-03-24T15:12:15.496Z,1017.3
2019-03-24T15:13:29.509Z,1017.3
2019-03-24T15:14:43.718Z,1017.3
2019-03-24T15:15:57.885Z,1017.3
2019-03-24T15:17:11.935Z,1017.3
2019-03-24T15:18:26.105Z,1017.2
2019-03-24T15:19:40.212Z,1017.2
2019-03-24T15:20:54.362Z,1017.1
2019-03-24T15:22:08.568Z,1017.1
2019-03-24T15:23:22.636Z,1017.1
2019-03-24T15:24:36.777Z,1017.1
2019-03-24T15:25:51.022Z,1017.2
2019-03-24T15:27:05.081Z,1017.2
2019-03-24T15:28:19.253Z,1017.2
2019-03-24T15:29:33.377Z,1017.2
2019-03-24T15:30:47.533Z,1017.1
2019-03-24T15:32:01.625Z,1017.1
2019-03-24T15:33:15.851Z,1017.2
2019-03-24T15:34:29.945Z,1017.1
2019-03-24T15:35:44.073Z,1017.2
2019-03-24T15:36:58.184Z,1017.1
2019-03-24T15:38:12.331Z,1017.1
2019-03-24T15:39:26.491Z,1017.2
2019-03-24T15:40:40.653Z,1017.2
2019-03-24T15:41:54.885Z,1017.2
2019-03-24T15:43:08.966Z,1017.2
2019-03-24T15:44:23.189Z,1017.2
2019-03-24T15:45:37.271Z,1017.2
2019-03-24T15:46:51.445Z,1017.2
2019-03-24T15:48:05.615Z,1017.2
2019-03-24T15:49:19.785Z,1017.2
2019-03-24T15:50:33.950Z,1017.2
2019-03-24T15:51:48.107Z,1017.1
2019-03-24T15:53:02.406Z,1017.1
2019-03-24T15:54:16.480Z,1017.1
2019-03-24T15:55:30.711Z,1017.1